42.8°F
Current conditions from King Hill
Updated every 5 minutes
 
  Sunday November 23, 2014

Observations for Westford

Westford

44° 37' 39"N, 73° 02' 29"W, Elevation 850 ft.
Eastern Time

Hourly observations for the last 72 hours

Date Time Temperature (F) Humi-
dity

(%)
Wind
(mph)
Pressure Rain (in)
Air Dew 6 Hour 1 Hr 3 Hr 6 Hr Day
Alt
(in)
Sea
Level

(mb)
Max Min
23 12:00 42.8 40.6 92 SSW 3 G 9 30.01 1016.2 0.11
23 11:00 40.7 38.8 93 SSW 2 G 6 30.02 1016.7 0.11
23 10:00 39.5 38.2 95 SSW 5 G 8 30.04 1017.4 0.11
23 09:00 38.5 37.5 96 SW 1 G 8 30.03 1017.1 0.11
23 08:00 38.0 37.0 96 S 1 G 10 30.02 1016.5 0.11
23 07:00 37.8 36.8 37.8 35.9 96 S 4 G 9 29.99 1015.7 0.01 0.05 0.11 0.11
23 06:00 37.4 36.1 95 SSW 3 G 9 29.98 1015.2 0.01 0.10
23 05:00 36.8 35.5 95 SW 5 G 10 29.96 1014.7 0.03 0.09
23 04:00 36.1 34.8 95 SSW 4 G 13 29.95 1014.2 0.04 0.06 0.06
23 03:00 36.0 34.2 93 SSW 7 G 15 29.94 1013.9 0.02 0.02
23 02:00 37.6 31.7 79 SSW 4 G 16 29.93 1013.7 0.00
23 01:00 37.7 30.5 37.8 33.0 75 SSW 8 G 16 29.92 1013.2 0.00
23 00:00 37.2 28.7 71 SSW 6 G 15 29.92 1013.1 0.00
22 23:00 36.6 27.0 68 SSW 3 G 14 29.92 1013.1 0.00
22 22:00 36.1 26.2 67 SSW 8 G 15 29.92 1013.1 0.00
22 21:00 35.5 26.3 69 SSW 8 G 14 29.90 1012.7 0.00
22 20:00 34.6 25.5 69 SSW 3 G 15 29.92 1013.2 0.00
22 19:00 33.0 23.9 34.3 30.2 69 SSW 1 G 16 29.93 1013.5 0.00
22 18:00 33.2 21.2 61 SSW 4 G 21 29.92 1013.4 0.00
22 17:00 34.1 15.0 45 SW 11 G 23 29.91 1012.8 0.00
22 16:00 32.4 13.4 45 SSW 9 G 27 29.91 1012.9 0.00
22 15:00 32.1 13.6 46 SSW 3 G 16 29.96 1014.5 0.00
22 14:00 33.2 14.1 45 SSW 10 G 22 29.97 1014.8 0.00
22 13:00 30.2 14.7 30.2 21.0 52 SSW 8 G 21 30.02 1016.6 0.00
22 12:00 28.1 15.2 58 SSW 5 G 17 30.06 1018.1 0.00
22 11:00 27.1 16.2 63 SSW 11 G 23 30.10 1019.2 0.00
22 10:00 26.0 16.9 68 S 9 G 27 30.14 1020.5 0.00
22 09:00 24.3 16.9 73 S 10 G 21 30.16 1021.5 0.00
22 08:00 23.0 16.9 77 S 5 G 15 30.20 1022.7 0.00
22 07:00 21.0 16.1 21.2 18.1 81 SSW 4 G 11 30.22 1023.5 0.00
22 06:00 20.8 15.6 80 SSW 6 G 12 30.24 1024.0 0.00
22 05:00 19.8 13.5 76 S 1 G 8 30.25 1024.5 0.00
22 04:00 18.4 11.5 74 S 1 G 4 30.28 1025.4 0.00
22 03:00 19.4 11.5 71 S 1 G 4 30.29 1025.9 0.00
22 02:00 18.5 11.0 72 SSW 0 G 4 30.30 1026.2 0.00
22 01:00 19.4 11.2 21.1 18.4 70 WSW 0 G 4 30.30 1026.2 0.00
22 00:00 19.4 13.1 76 SW 0 G 3 30.30 1026.2 0.01
21 23:00 21.0 12.1 68 SW 1 G 7 30.31 1026.5 0.01
21 22:00 20.6 11.7 68 WSW 1 G 7 30.32 1026.9 0.01
21 21:00 20.4 11.2 67 W 3 G 11 30.33 1027.2 0.01
21 20:00 19.6 9.7 65 WSW 2 G 9 30.33 1027.3 0.01
21 19:00 18.7 7.5 24.9 18.0 61 W 0 G 6 30.33 1027.2 0.01
21 18:00 18.6 6.6 59 WSW 0 G 6 30.32 1026.9 0.01
21 17:00 19.7 4.9 52 W 1 G 17 30.30 1026.0 0.01
21 16:00 22.1 5.8 49 W 2 G 12 30.26 1024.7 0.01
21 15:00 23.9 5.1 44 WNW 5 G 11 30.22 1023.4 0.01
21 14:00 24.0 7.6 49 NW 3 G 18 30.19 1022.5 0.01
21 13:00 24.0 11.0 24.4 20.2 57 WNW 7 G 16 30.18 1022.1 0.01 0.01 0.01 0.01
21 12:00 22.8 13.8 68 NW 4 G 11 30.16 1021.3 0.00
21 11:00 22.5 13.9 69 WNW 5 G 19 30.15 1021.0 0.00
21 10:00 20.9 15.1 78 NW 8 G 19 30.12 1020.1 0.00
21 09:00 20.3 14.8 79 NW 5 G 13 30.09 1019.1 0.00
21 08:00 20.5 15.0 79 WNW 2 G 15 30.05 1017.6 0.00
21 07:00 20.5 14.4 23.4 20.5 77 NW 7 G 19 30.00 1016.1 0.00
21 06:00 21.3 15.5 78 WNW 4 G 19 29.95 1014.3 0.00
21 05:00 21.3 15.5 78 W 6 G 15 29.92 1013.2 0.00
21 04:00 21.4 15.0 76 W 4 G 16 29.88 1011.9 0.00
21 03:00 21.6 14.9 75 W 7 G 19 29.86 1011.2 0.00
21 02:00 22.6 14.0 69 W 6 G 16 29.84 1010.6 0.00
21 01:00 23.4 12.7 26.0 22.4 63 WSW 4 G 13 29.83 1010.2 0.00
21 00:00 23.5 11.3 59 WSW 4 G 13 29.81 1009.5 0.00
20 23:00 23.2 11.4 60 WSW 5 G 17 29.80 1009.0 0.00
20 22:00 24.1 12.2 60 WSW 9 G 15 29.80 1009.2 0.00
20 21:00 24.5 13.7 63 WSW 4 G 15 29.80 1009.0 0.00
20 20:00 25.2 14.4 63 SW 2 G 15 29.79 1008.8 0.00
20 19:00 25.9 15.0 32.3 24.9 63 SW 3 G 12 29.78 1008.6 0.00
20 18:00 25.2 18.1 74 W 4 G 16 29.77 1008.3 0.00
20 17:00 26.7 16.2 64 WSW 6 G 26 29.76 1007.8 0.00
20 16:00 26.9 20.0 75 WSW 2 G 11 29.74 1007.1 0.00
20 15:00 28.3 16.9 62 W 9 G 24 29.72 1006.5 0.00
20 14:00 28.1 20.2 72 W 12 G 24 29.72 1006.3 0.00
20 13:00 32.1 22.4 34.8 24.9 67 SW 8 G 16 29.68 1005.3 0.00

Data generated by WxSolution Version 1.8.7.2, Build 2014.02.15.


 
 
Current Radar Loop:

Copyright © WestfordWeather.net 2007-2014. All rights reserved.